createdAt,value
2019-01-29T00:00:31.127Z,-0.1297
2019-01-29T00:01:40.664Z,-0.139771
2019-01-29T00:02:50.188Z,-0.139771
2019-01-29T00:03:59.693Z,-0.1297
2019-01-29T00:05:09.225Z,-0.1297
2019-01-29T00:06:18.736Z,-0.1297
2019-01-29T00:07:28.258Z,-0.139771
2019-01-29T00:08:37.795Z,-0.139771
2019-01-29T00:09:47.318Z,-0.149841
2019-01-29T00:10:56.903Z,-0.149841
2019-01-29T00:12:06.402Z,-0.149841
2019-01-29T00:13:15.919Z,-0.149841
2019-01-29T00:14:25.440Z,-0.180054
2019-01-29T00:15:34.958Z,-0.169983
2019-01-29T00:16:44.493Z,-0.169983
2019-01-29T00:17:54.020Z,-0.169983
2019-01-29T00:19:03.536Z,-0.169983
2019-01-29T00:20:13.076Z,-0.169983
2019-01-29T00:21:22.582Z,-0.169983
2019-01-29T00:22:33.415Z,-0.149841
2019-01-29T00:23:41.594Z,-0.139771
2019-01-29T00:24:51.103Z,-0.139771
2019-01-29T00:26:00.624Z,-0.149841
2019-01-29T00:27:10.157Z,-0.149841
2019-01-29T00:28:19.686Z,-0.1297
2019-01-29T00:29:29.219Z,-0.1297
2019-01-29T00:30:38.737Z,-0.139771
2019-01-29T00:31:48.330Z,-0.1297
2019-01-29T00:32:58.785Z,-0.139771
2019-01-29T00:34:08.315Z,-0.1297
2019-01-29T00:35:17.852Z,-0.1297
2019-01-29T00:36:27.353Z,-0.109558
2019-01-29T00:37:36.907Z,-0.109558
2019-01-29T00:38:46.428Z,-0.099487
2019-01-29T00:39:55.959Z,-0.069275
2019-01-29T00:41:05.496Z,-0.069275
2019-01-29T00:42:15.036Z,-0.079346
2019-01-29T00:43:24.548Z,-0.069275
2019-01-29T00:44:34.075Z,-0.079346
2019-01-29T00:45:43.590Z,-0.079346
2019-01-29T00:46:53.145Z,-0.109558
2019-01-29T00:48:02.683Z,-0.1297
2019-01-29T00:49:12.203Z,-0.139771
2019-01-29T00:50:21.718Z,-0.1297
2019-01-29T00:51:31.231Z,-0.139771
2019-01-29T00:52:41.975Z,-0.139771
2019-01-29T00:53:51.261Z,-0.139771
2019-01-29T00:55:00.811Z,-0.1297
2019-01-29T00:56:10.315Z,-0.139771
2019-01-29T00:57:19.867Z,-0.169983
2019-01-29T00:58:29.375Z,-0.180054
2019-01-29T00:59:38.901Z,-0.200195
2019-01-29T01:00:48.426Z,-0.200195
2019-01-29T01:01:57.936Z,-0.200195
2019-01-29T01:03:07.473Z,-0.210266
2019-01-29T01:04:16.992Z,-0.230408
2019-01-29T01:05:26.507Z,-0.26062
2019-01-29T01:06:36.035Z,-0.230408
2019-01-29T01:07:45.573Z,-0.26062
2019-01-29T01:08:55.099Z,-0.310974
2019-01-29T01:10:04.619Z,-0.341187
2019-01-29T01:11:14.151Z,-0.351257
2019-01-29T01:12:23.690Z,-0.391541
2019-01-29T01:13:33.222Z,-0.391541
2019-01-29T01:14:42.739Z,-0.431824
2019-01-29T01:15:52.312Z,-0.472107
2019-01-29T01:17:01.818Z,-0.472107
2019-01-29T01:18:11.344Z,-0.472107
2019-01-29T01:19:20.883Z,-0.492249
2019-01-29T01:20:30.410Z,-0.502319
2019-01-29T01:21:39.926Z,-0.532532
2019-01-29T01:22:50.918Z,-0.562744
2019-01-29T01:23:58.975Z,-0.572815
2019-01-29T01:25:08.497Z,-0.592957
2019-01-29T01:26:18.044Z,-0.643311
2019-01-29T01:27:27.569Z,-0.613098
2019-01-29T01:28:37.088Z,-0.592957
2019-01-29T01:29:46.616Z,-0.572815
2019-01-29T01:30:56.148Z,-0.613098
2019-01-29T01:32:05.788Z,-0.653381
2019-01-29T01:33:15.393Z,-0.643311
2019-01-29T01:34:25.001Z,-0.643311
2019-01-29T01:35:34.650Z,-0.623169
2019-01-29T01:36:44.234Z,-0.613098
2019-01-29T01:37:53.863Z,-0.613098
2019-01-29T01:39:03.615Z,-0.572815
2019-01-29T01:40:13.241Z,-0.592957
2019-01-29T01:41:23.023Z,-0.572815
2019-01-29T01:42:32.650Z,-0.572815
2019-01-29T01:43:42.239Z,-0.572815
2019-01-29T01:44:51.809Z,-0.613098
2019-01-29T01:46:01.402Z,-0.623169
2019-01-29T01:47:11.005Z,-0.623169
2019-01-29T01:48:20.661Z,-0.643311
2019-01-29T01:49:30.228Z,-0.653381
2019-01-29T01:50:39.825Z,-0.623169
2019-01-29T01:51:49.429Z,-0.643311
2019-01-29T01:52:59.605Z,-0.703735
2019-01-29T01:54:08.603Z,-0.713806
2019-01-29T01:55:18.158Z,-0.744019
2019-01-29T01:56:27.731Z,-0.754089
2019-01-29T01:57:38.337Z,-0.754089
2019-01-29T01:58:47.991Z,-0.754089
2019-01-29T01:59:57.594Z,-0.754089
2019-01-29T02:01:07.298Z,-0.824585
2019-01-29T02:02:16.897Z,-0.854797
2019-01-29T02:03:26.486Z,-0.854797
2019-01-29T02:04:36.064Z,-0.895081
2019-01-29T02:05:45.670Z,-0.895081
2019-01-29T02:06:55.234Z,-0.864868
2019-01-29T02:08:04.904Z,-0.854797
2019-01-29T02:09:14.516Z,-0.824585
2019-01-29T02:10:24.133Z,-0.864868
2019-01-29T02:11:33.758Z,-0.864868
2019-01-29T02:12:43.397Z,-0.895081
2019-01-29T02:13:53.192Z,-0.895081
2019-01-29T02:15:02.884Z,-0.955505
2019-01-29T02:16:12.478Z,-0.965576
2019-01-29T02:17:22.143Z,-1.036072
2019-01-29T02:18:31.828Z,-1.01593
2019-01-29T02:19:41.458Z,-1.01593
2019-01-29T02:20:51.046Z,-1.066284
2019-01-29T02:22:00.686Z,-1.046143
2019-01-29T02:23:10.475Z,-1.046143
2019-01-29T02:24:20.220Z,-1.066284
2019-01-29T02:25:29.795Z,-1.066284
2019-01-29T02:26:39.458Z,-1.046143
2019-01-29T02:27:49.086Z,-1.036072
2019-01-29T02:28:58.762Z,-1.046143
2019-01-29T02:30:08.464Z,-1.01593
2019-01-29T02:31:18.031Z,-0.965576
2019-01-29T02:32:27.634Z,-0.955505
2019-01-29T02:33:37.274Z,-0.925293
2019-01-29T02:34:46.849Z,-0.905151
2019-01-29T02:35:56.438Z,-0.905151
2019-01-29T02:37:06.016Z,-0.925293
2019-01-29T02:38:15.721Z,-0.955505
2019-01-29T02:39:25.321Z,-0.965576
2019-01-29T02:40:34.980Z,-0.985718
2019-01-29T02:41:44.657Z,-1.005859
2019-01-29T02:42:54.372Z,-1.01593
2019-01-29T02:44:04.012Z,-1.01593
2019-01-29T02:45:13.605Z,-1.005859
2019-01-29T02:46:23.192Z,-1.005859
2019-01-29T02:47:32.793Z,-0.985718
2019-01-29T02:48:42.415Z,-0.985718
2019-01-29T02:49:52.011Z,-0.935364
2019-01-29T02:51:01.640Z,-0.925293
2019-01-29T02:52:11.269Z,-0.955505
2019-01-29T02:53:20.911Z,-0.935364
2019-01-29T02:54:31.632Z,-0.935364
2019-01-29T02:55:41.361Z,-0.895081
2019-01-29T02:56:51.021Z,-0.864868
2019-01-29T02:58:00.773Z,-0.864868
2019-01-29T02:59:10.521Z,-0.854797
2019-01-29T03:00:20.146Z,-0.854797
2019-01-29T03:01:29.757Z,-0.824585
2019-01-29T03:02:39.441Z,-0.824585
2019-01-29T03:03:49.162Z,-0.784302
2019-01-29T03:04:58.794Z,-0.774231
2019-01-29T03:06:08.368Z,-0.744019
2019-01-29T03:07:17.991Z,-0.744019
2019-01-29T03:08:27.599Z,-0.744019
2019-01-29T03:09:38.167Z,-0.784302
2019-01-29T03:10:47.905Z,-0.804443
2019-01-29T03:11:57.497Z,-0.804443
2019-01-29T03:13:07.163Z,-0.824585
2019-01-29T03:14:16.899Z,-0.804443
2019-01-29T03:15:26.481Z,-0.804443
2019-01-29T03:16:36.156Z,-0.804443
2019-01-29T03:17:45.888Z,-0.784302
2019-01-29T03:18:55.582Z,-0.784302
2019-01-29T03:20:05.376Z,-0.804443
2019-01-29T03:21:15.014Z,-0.804443
2019-01-29T03:22:24.631Z,-0.774231
2019-01-29T03:23:34.263Z,-0.754089
2019-01-29T03:24:43.976Z,-0.754089
2019-01-29T03:25:53.721Z,-0.774231
2019-01-29T03:27:03.542Z,-0.754089
2019-01-29T03:28:13.173Z,-0.774231
2019-01-29T03:29:22.851Z,-0.784302
2019-01-29T03:30:32.446Z,-0.824585
2019-01-29T03:31:42.162Z,-0.834656
2019-01-29T03:32:51.888Z,-0.834656
2019-01-29T03:34:01.480Z,-0.854797
2019-01-29T03:35:11.173Z,-0.854797
2019-01-29T03:36:20.798Z,-0.854797
2019-01-29T03:37:30.524Z,-0.854797
2019-01-29T03:38:40.344Z,-0.864868
2019-01-29T03:39:49.945Z,-0.88501
2019-01-29T03:40:59.515Z,-0.895081
2019-01-29T03:42:09.166Z,-0.895081
2019-01-29T03:43:18.800Z,-0.905151
2019-01-29T03:44:29.478Z,-0.895081
2019-01-29T03:45:39.086Z,-0.88501
2019-01-29T03:46:48.758Z,-0.88501
2019-01-29T03:47:58.411Z,-0.895081
2019-01-29T03:49:08.012Z,-0.905151
2019-01-29T03:50:17.616Z,-0.905151
2019-01-29T03:51:27.242Z,-0.925293
2019-01-29T03:52:36.930Z,-0.935364
2019-01-29T03:53:46.522Z,-0.955505
2019-01-29T03:54:56.092Z,-0.925293
2019-01-29T03:56:05.608Z,-0.925293
2019-01-29T03:57:15.124Z,-0.925293
2019-01-29T03:58:24.650Z,-0.88501
2019-01-29T03:59:34.191Z,-0.864868
2019-01-29T04:00:43.745Z,-0.834656
2019-01-29T04:01:53.249Z,-0.784302
2019-01-29T04:03:02.771Z,-0.754089
2019-01-29T04:04:12.314Z,-0.744019
2019-01-29T04:05:21.842Z,-0.713806
2019-01-29T04:06:31.366Z,-0.673523
2019-01-29T04:07:40.895Z,-0.703735
2019-01-29T04:08:50.425Z,-0.653381
2019-01-29T04:09:59.969Z,-0.673523
2019-01-29T04:11:09.500Z,-0.683594
2019-01-29T04:12:19.022Z,-0.673523
2019-01-29T04:13:28.538Z,-0.653381
2019-01-29T04:14:38.076Z,-0.653381
2019-01-29T04:15:47.584Z,-0.673523
2019-01-29T04:16:57.111Z,-0.653381
2019-01-29T04:18:06.627Z,-0.673523
2019-01-29T04:19:16.215Z,-0.673523
2019-01-29T04:20:25.731Z,-0.673523
2019-01-29T04:21:35.250Z,-0.623169
2019-01-29T04:22:45.928Z,-0.613098
2019-01-29T04:23:54.283Z,-0.592957
2019-01-29T04:25:03.808Z,-0.592957
2019-01-29T04:26:13.334Z,-0.562744
2019-01-29T04:27:22.869Z,-0.572815
2019-01-29T04:28:32.377Z,-0.572815
2019-01-29T04:29:41.913Z,-0.592957
2019-01-29T04:30:51.427Z,-0.572815
2019-01-29T04:32:00.959Z,-0.572815
2019-01-29T04:33:10.510Z,-0.562744
2019-01-29T04:34:20.038Z,-0.572815
2019-01-29T04:35:29.558Z,-0.592957
2019-01-29T04:36:39.081Z,-0.572815
2019-01-29T04:37:48.626Z,-0.562744
2019-01-29T04:38:58.150Z,-0.572815
2019-01-29T04:40:07.705Z,-0.592957
2019-01-29T04:41:17.218Z,-0.592957
2019-01-29T04:42:26.725Z,-0.592957
2019-01-29T04:43:36.254Z,-0.592957
2019-01-29T04:44:45.796Z,-0.613098
2019-01-29T04:45:55.323Z,-0.592957
2019-01-29T04:47:04.837Z,-0.572815
2019-01-29T04:48:14.359Z,-0.592957
2019-01-29T04:49:23.893Z,-0.592957
2019-01-29T04:50:33.428Z,-0.613098
2019-01-29T04:51:42.948Z,-0.592957
2019-01-29T04:52:52.476Z,-0.623169
2019-01-29T04:54:01.988Z,-0.613098
2019-01-29T04:55:11.527Z,-0.613098
2019-01-29T04:56:21.042Z,-0.613098
2019-01-29T04:57:30.564Z,-0.592957
2019-01-29T04:58:40.098Z,-0.613098
2019-01-29T04:59:49.647Z,-0.592957
2019-01-29T05:00:59.175Z,-0.592957
2019-01-29T05:02:08.699Z,-0.592957
2019-01-29T05:03:18.216Z,-0.592957
2019-01-29T05:04:27.740Z,-0.592957
2019-01-29T05:05:37.347Z,-0.613098
2019-01-29T05:06:46.851Z,-0.613098
2019-01-29T05:07:56.371Z,-0.613098
2019-01-29T05:09:05.893Z,-0.623169
2019-01-29T05:10:15.426Z,-0.623169
2019-01-29T05:11:24.943Z,-0.673523
2019-01-29T05:12:34.534Z,-0.653381
2019-01-29T05:13:44.076Z,-0.643311
2019-01-29T05:14:53.630Z,-0.623169
2019-01-29T05:16:03.142Z,-0.643311
2019-01-29T05:17:12.667Z,-0.623169
2019-01-29T05:18:22.183Z,-0.613098
2019-01-29T05:19:32.691Z,-0.613098
2019-01-29T05:20:42.222Z,-0.623169
2019-01-29T05:21:51.733Z,-0.623169
2019-01-29T05:23:01.314Z,-0.643311
2019-01-29T05:24:10.872Z,-0.623169
2019-01-29T05:25:20.428Z,-0.653381
2019-01-29T05:26:30.026Z,-0.653381
2019-01-29T05:27:39.623Z,-0.673523
2019-01-29T05:28:49.141Z,-0.653381
2019-01-29T05:29:58.674Z,-0.653381
2019-01-29T05:31:08.212Z,-0.643311
2019-01-29T05:32:17.709Z,-0.643311
2019-01-29T05:33:27.261Z,-0.643311
2019-01-29T05:34:36.795Z,-0.643311
2019-01-29T05:35:46.306Z,-0.683594
2019-01-29T05:36:55.812Z,-0.703735
2019-01-29T05:38:05.323Z,-0.703735
2019-01-29T05:39:14.829Z,-0.683594
2019-01-29T05:40:24.361Z,-0.703735
2019-01-29T05:41:33.884Z,-0.723877
2019-01-29T05:42:43.446Z,-0.703735
2019-01-29T05:43:52.955Z,-0.713806
2019-01-29T05:45:02.517Z,-0.723877
2019-01-29T05:46:12.028Z,-0.713806
2019-01-29T05:47:21.559Z,-0.713806
2019-01-29T05:48:31.087Z,-0.713806
2019-01-29T05:49:40.598Z,-0.703735
2019-01-29T05:50:50.126Z,-0.723877
2019-01-29T05:51:59.637Z,-0.713806
2019-01-29T05:53:09.248Z,-0.723877
2019-01-29T05:54:18.755Z,-0.723877
2019-01-29T05:55:28.280Z,-0.723877
2019-01-29T05:56:37.822Z,-0.723877
2019-01-29T05:57:48.335Z,-0.723877
2019-01-29T05:58:57.878Z,-0.723877
2019-01-29T06:00:07.386Z,-0.723877
2019-01-29T06:01:16.934Z,-0.703735
2019-01-29T06:02:26.447Z,-0.713806
2019-01-29T06:03:35.976Z,-0.703735
2019-01-29T06:04:45.489Z,-0.703735
2019-01-29T06:05:55.015Z,-0.703735
2019-01-29T06:07:04.518Z,-0.713806
2019-01-29T06:08:14.039Z,-0.703735
2019-01-29T06:09:23.599Z,-0.673523
2019-01-29T06:10:33.130Z,-0.673523
2019-01-29T06:11:42.648Z,-0.673523
2019-01-29T06:12:52.157Z,-0.643311
2019-01-29T06:14:01.679Z,-0.653381
2019-01-29T06:15:11.227Z,-0.643311
2019-01-29T06:16:20.799Z,-0.643311
2019-01-29T06:17:30.343Z,-0.623169
2019-01-29T06:18:39.865Z,-0.643311
2019-01-29T06:19:49.411Z,-0.623169
2019-01-29T06:20:58.941Z,-0.623169
2019-01-29T06:22:08.521Z,-0.613098
2019-01-29T06:23:18.090Z,-0.613098
2019-01-29T06:24:27.616Z,-0.572815
2019-01-29T06:25:39.186Z,-0.572815
2019-01-29T06:26:46.656Z,-0.572815
2019-01-29T06:27:56.168Z,-0.572815
2019-01-29T06:29:05.727Z,-0.542603
2019-01-29T06:30:15.242Z,-0.562744
2019-01-29T06:31:24.763Z,-0.562744
2019-01-29T06:32:34.279Z,-0.562744
2019-01-29T06:33:43.786Z,-0.562744
2019-01-29T06:34:53.297Z,-0.562744
2019-01-29T06:36:02.863Z,-0.532532
2019-01-29T06:37:12.357Z,-0.542603
2019-01-29T06:38:21.866Z,-0.522461
2019-01-29T06:39:31.396Z,-0.532532
2019-01-29T06:40:40.939Z,-0.522461
2019-01-29T06:41:50.477Z,-0.492249
2019-01-29T06:43:00.000Z,-0.472107
2019-01-29T06:44:09.521Z,-0.492249
2019-01-29T06:45:19.062Z,-0.472107
2019-01-29T06:46:28.598Z,-0.472107
2019-01-29T06:47:38.128Z,-0.462036
2019-01-29T06:48:47.660Z,-0.462036
2019-01-29T06:49:57.180Z,-0.462036
2019-01-29T06:51:06.718Z,-0.462036
2019-01-29T06:52:16.247Z,-0.431824
2019-01-29T06:53:25.773Z,-0.431824
2019-01-29T06:54:35.297Z,-0.361328
2019-01-29T06:55:44.842Z,-0.341187
2019-01-29T06:56:54.375Z,-0.321045
2019-01-29T06:58:03.902Z,-0.321045
2019-01-29T06:59:13.411Z,-0.310974
2019-01-29T07:00:22.956Z,-0.321045
2019-01-29T07:01:32.500Z,-0.321045
2019-01-29T07:02:42.040Z,-0.321045
2019-01-29T07:03:51.582Z,-0.310974
2019-01-29T07:05:01.103Z,-0.310974
2019-01-29T07:06:10.624Z,-0.290833
2019-01-29T07:07:20.143Z,-0.290833
2019-01-29T07:08:29.655Z,-0.280762
2019-01-29T07:09:39.161Z,-0.280762
2019-01-29T07:10:48.806Z,-0.280762
2019-01-29T07:11:58.302Z,-0.250549
2019-01-29T07:13:07.825Z,-0.250549
2019-01-29T07:14:17.348Z,-0.250549
2019-01-29T07:15:26.854Z,-0.230408
2019-01-29T07:16:36.402Z,-0.230408
2019-01-29T07:17:45.931Z,-0.210266
2019-01-29T07:18:55.460Z,-0.230408
2019-01-29T07:20:04.983Z,-0.210266
2019-01-29T07:21:14.511Z,-0.230408
2019-01-29T07:22:24.072Z,-0.210266
2019-01-29T07:23:33.605Z,-0.210266
2019-01-29T07:24:43.196Z,-0.230408
2019-01-29T07:25:52.652Z,-0.230408
2019-01-29T07:27:02.191Z,-0.230408
2019-01-29T07:28:13.350Z,-0.230408
2019-01-29T07:29:21.216Z,-0.200195
2019-01-29T07:30:30.735Z,-0.210266
2019-01-29T07:31:40.304Z,-0.200195
2019-01-29T07:32:49.837Z,-0.180054
2019-01-29T07:33:59.363Z,-0.169983
2019-01-29T07:35:08.885Z,-0.149841
2019-01-29T07:36:19.413Z,-0.139771
2019-01-29T07:37:28.980Z,-0.139771
2019-01-29T07:38:38.490Z,-0.1297
2019-01-29T07:39:48.003Z,-0.109558
2019-01-29T07:40:57.508Z,-0.099487
2019-01-29T07:42:07.034Z,-0.109558
2019-01-29T07:43:16.567Z,-0.109558
2019-01-29T07:44:26.111Z,-0.079346
2019-01-29T07:45:35.646Z,-0.069275
2019-01-29T07:46:45.182Z,-0.069275
2019-01-29T07:47:54.683Z,-0.069275
2019-01-29T07:49:04.201Z,-0.059204
2019-01-29T07:50:13.726Z,-0.069275
2019-01-29T07:51:23.250Z,-0.028992
2019-01-29T07:52:32.777Z,0.001221
2019-01-29T07:53:42.291Z,0.001221
2019-01-29T07:54:51.814Z,0.011292
2019-01-29T07:56:01.338Z,0.041504
2019-01-29T07:57:10.870Z,0.071716
2019-01-29T07:58:20.385Z,0.051575
2019-01-29T07:59:33.007Z,0.112
2019-01-29T08:00:39.435Z,0.112
2019-01-29T08:01:48.965Z,0.162354
2019-01-29T08:02:58.526Z,0.192566
2019-01-29T08:04:08.056Z,0.212708
2019-01-29T08:05:17.587Z,0.263062
2019-01-29T08:06:27.100Z,0.283203
2019-01-29T08:07:36.699Z,0.323486
2019-01-29T08:08:46.280Z,0.343628
2019-01-29T08:09:55.803Z,0.313416
2019-01-29T08:11:05.327Z,0.323486
2019-01-29T08:12:14.875Z,0.323486
2019-01-29T08:13:24.407Z,0.323486
2019-01-29T08:14:33.929Z,0.343628
2019-01-29T08:15:43.484Z,0.343628
2019-01-29T08:16:53.020Z,0.36377
2019-01-29T08:18:02.552Z,0.393982
2019-01-29T08:19:12.067Z,0.37384
2019-01-29T08:20:22.589Z,0.36377
2019-01-29T08:21:32.110Z,0.36377
2019-01-29T08:22:41.642Z,0.404053
2019-01-29T08:23:51.156Z,0.414124
2019-01-29T08:25:01.554Z,0.414124
2019-01-29T08:26:10.180Z,0.404053
2019-01-29T08:27:19.699Z,0.434265
2019-01-29T08:28:29.223Z,0.434265
2019-01-29T08:29:38.730Z,0.434265
2019-01-29T08:30:48.286Z,0.464478
2019-01-29T08:31:57.761Z,0.504761
2019-01-29T08:33:07.276Z,0.504761
2019-01-29T08:34:16.801Z,0.524902
2019-01-29T08:35:26.328Z,0.545044
2019-01-29T08:36:35.844Z,0.545044
2019-01-29T08:37:45.399Z,0.555115
2019-01-29T08:38:54.911Z,0.555115
2019-01-29T08:40:04.433Z,0.575256
2019-01-29T08:41:13.958Z,0.595398
2019-01-29T08:42:23.485Z,0.655823
2019-01-29T08:43:33.011Z,0.696106
2019-01-29T08:44:42.544Z,0.696106
2019-01-29T08:45:53.953Z,0.645752
2019-01-29T08:47:01.634Z,0.645752
2019-01-29T08:48:11.146Z,0.675964
2019-01-29T08:49:20.685Z,0.655823
2019-01-29T08:50:30.194Z,0.62561
2019-01-29T08:51:39.719Z,0.62561
2019-01-29T08:52:49.257Z,0.61554
2019-01-29T08:53:58.778Z,0.62561
2019-01-29T08:55:10.686Z,0.585327
2019-01-29T08:56:17.829Z,0.696106
2019-01-29T08:57:27.400Z,0.937805
2019-01-29T08:58:36.922Z,1.078796
2019-01-29T08:59:46.439Z,1.350708
2019-01-29T09:00:55.970Z,1.562195
2019-01-29T09:02:05.492Z,1.592407
2019-01-29T09:03:15.035Z,1.844177
2019-01-29T09:04:24.554Z,1.854248
2019-01-29T09:05:34.073Z,1.773682
2019-01-29T09:06:43.612Z,1.672974
2019-01-29T09:07:53.143Z,1.592407
2019-01-29T09:09:02.663Z,1.491699
2019-01-29T09:10:12.170Z,1.37085
2019-01-29T09:11:21.687Z,1.320496
2019-01-29T09:12:31.223Z,1.38092
2019-01-29T09:13:40.753Z,1.260071
2019-01-29T09:14:50.274Z,1.078796
2019-01-29T09:15:59.795Z,0.947876
2019-01-29T09:17:09.305Z,0.988159
2019-01-29T09:18:18.851Z,0.978088
2019-01-29T09:19:28.381Z,0.957947
2019-01-29T09:20:37.894Z,0.827026
2019-01-29T09:21:47.416Z,0.806885
2019-01-29T09:22:56.946Z,0.756531
2019-01-29T09:24:06.472Z,0.736389
2019-01-29T09:25:19.986Z,0.776672
2019-01-29T09:26:25.482Z,0.806885
2019-01-29T09:27:35.049Z,0.837097
2019-01-29T09:28:44.577Z,0.857239
2019-01-29T09:29:54.099Z,0.796814
2019-01-29T09:31:03.635Z,0.655823
2019-01-29T09:32:13.139Z,0.575256
2019-01-29T09:33:22.672Z,0.434265
2019-01-29T09:34:32.193Z,0.36377
2019-01-29T09:35:41.719Z,0.283203
2019-01-29T09:36:51.233Z,0.343628
2019-01-29T09:38:00.770Z,0.404053
2019-01-29T09:39:10.302Z,0.414124
2019-01-29T09:40:19.826Z,0.444336
2019-01-29T09:41:29.350Z,0.444336
2019-01-29T09:42:38.874Z,0.504761
2019-01-29T09:43:48.430Z,0.545044
2019-01-29T09:44:57.975Z,0.575256
2019-01-29T09:46:07.498Z,0.524902
2019-01-29T09:47:17.016Z,0.404053
2019-01-29T09:48:26.555Z,0.323486
2019-01-29T09:49:36.067Z,0.232849
2019-01-29T09:50:45.597Z,0.232849
2019-01-29T09:51:55.131Z,0.162354
2019-01-29T09:53:04.680Z,0.101929
2019-01-29T09:54:14.197Z,0.081787
2019-01-29T09:55:29.212Z,0.444336
2019-01-29T09:56:33.227Z,0.655823
2019-01-29T09:57:42.757Z,0.917664
2019-01-29T09:58:52.287Z,1.320496
2019-01-29T10:00:01.812Z,1.592407
2019-01-29T10:01:11.328Z,1.88446
2019-01-29T10:02:20.881Z,1.88446
2019-01-29T10:03:30.422Z,1.944885
2019-01-29T10:04:39.953Z,2.055664
2019-01-29T10:05:49.487Z,2.347717
2019-01-29T10:06:59.021Z,2.528992
2019-01-29T10:08:08.576Z,2.498779
2019-01-29T10:09:18.100Z,1.965027
2019-01-29T10:10:27.629Z,1.783752
2019-01-29T10:11:37.155Z,2.035522
2019-01-29T10:12:46.689Z,2.25708
2019-01-29T10:13:56.249Z,2.498779
2019-01-29T10:15:05.763Z,2.871399
2019-01-29T10:16:15.279Z,3.223877
2019-01-29T10:17:24.788Z,3.314514
2019-01-29T10:18:34.350Z,3.364868
2019-01-29T10:19:43.861Z,3.546143
2019-01-29T10:20:53.386Z,3.727417
2019-01-29T10:22:02.930Z,3.405151
2019-01-29T10:23:12.475Z,3.576355
2019-01-29T10:24:21.990Z,3.26416
2019-01-29T10:25:37.295Z,3.072815
2019-01-29T10:26:41.033Z,2.861328
2019-01-29T10:27:50.563Z,2.690125
2019-01-29T10:29:00.091Z,2.418213
2019-01-29T10:30:09.616Z,2.539062
2019-01-29T10:31:19.137Z,2.599487
2019-01-29T10:32:28.648Z,2.982178
2019-01-29T10:33:38.190Z,3.13324
2019-01-29T10:34:47.709Z,3.344727
2019-01-29T10:35:57.237Z,3.616638
2019-01-29T10:37:06.756Z,3.938904
2019-01-29T10:38:16.302Z,4.170532
2019-01-29T10:39:25.850Z,4.371948
2019-01-29T10:40:35.367Z,3.989258
2019-01-29T10:41:44.891Z,4.079895
2019-01-29T10:42:54.392Z,3.979187
2019-01-29T10:44:03.922Z,4.160461
2019-01-29T10:45:13.434Z,4.482727
2019-01-29T10:46:22.964Z,4.704285
2019-01-29T10:47:32.473Z,4.603577
2019-01-29T10:48:42.004Z,4.261169
2019-01-29T10:49:51.527Z,4.01947
2019-01-29T10:51:01.053Z,3.938904
2019-01-29T10:52:10.578Z,3.908691
2019-01-29T10:53:20.096Z,3.918762
2019-01-29T10:54:29.636Z,3.959045
2019-01-29T10:55:46.921Z,3.656921
2019-01-29T10:56:48.688Z,3.626709
2019-01-29T10:57:58.191Z,4.281311
2019-01-29T10:59:07.733Z,4.804993
2019-01-29T11:00:17.252Z,5.177612
2019-01-29T11:01:26.768Z,5.640869
2019-01-29T11:02:36.296Z,5.227966
2019-01-29T11:03:45.842Z,5.1474
2019-01-29T11:04:55.388Z,4.935913
2019-01-29T11:06:04.919Z,4.835205
2019-01-29T11:07:14.435Z,4.835205
2019-01-29T11:08:23.948Z,4.603577
2019-01-29T11:09:33.496Z,4.281311
2019-01-29T11:10:43.025Z,4.311523
2019-01-29T11:11:52.536Z,4.382019
2019-01-29T11:13:02.052Z,4.633789
2019-01-29T11:14:11.580Z,4.885559
2019-01-29T11:15:21.101Z,5.167542
2019-01-29T11:16:30.622Z,5.177612
2019-01-29T11:17:40.144Z,5.1474
2019-01-29T11:18:49.694Z,5.117188
2019-01-29T11:20:00.205Z,4.704285
2019-01-29T11:21:09.714Z,4.422302
2019-01-29T11:22:19.227Z,4.301453
2019-01-29T11:23:28.737Z,4.059753
2019-01-29T11:24:38.305Z,3.737488
2019-01-29T11:25:55.365Z,3.616638
2019-01-29T11:26:57.317Z,3.646851
2019-01-29T11:28:06.846Z,3.435364
2019-01-29T11:29:16.396Z,3.364868
2019-01-29T11:30:25.917Z,3.777771
2019-01-29T11:31:35.451Z,4.01947
2019-01-29T11:32:44.982Z,4.120178
2019-01-29T11:33:54.530Z,3.868408
2019-01-29T11:35:04.065Z,3.596497
2019-01-29T11:36:13.591Z,3.727417
2019-01-29T11:37:23.118Z,3.626709
2019-01-29T11:38:32.633Z,3.344727
2019-01-29T11:39:42.197Z,3.13324
2019-01-29T11:40:51.719Z,3.113098
2019-01-29T11:42:01.245Z,2.871399
2019-01-29T11:43:10.776Z,2.871399
2019-01-29T11:44:20.305Z,2.821045
2019-01-29T11:45:29.818Z,2.861328
2019-01-29T11:46:39.369Z,2.921753
2019-01-29T11:47:48.942Z,3.032532
2019-01-29T11:48:58.416Z,2.901611
2019-01-29T11:50:07.958Z,2.821045
2019-01-29T11:51:17.478Z,2.821045
2019-01-29T11:52:26.998Z,2.750549
2019-01-29T11:53:36.514Z,2.680054
2019-01-29T11:54:46.078Z,3.13324
2019-01-29T11:56:04.036Z,3.475647
2019-01-29T11:57:06.081Z,3.918762
2019-01-29T11:58:15.619Z,4.351807
2019-01-29T11:59:25.170Z,4.563293
2019-01-29T12:00:34.678Z,4.89563
2019-01-29T12:01:44.240Z,5.097046
2019-01-29T12:02:53.710Z,5.358887
2019-01-29T12:04:03.266Z,5.258179
2019-01-29T12:05:12.781Z,5.288391
2019-01-29T12:06:22.308Z,5.097046
2019-01-29T12:07:31.857Z,5.177612
2019-01-29T12:08:41.385Z,4.734497
2019-01-29T12:09:50.921Z,4.311523
2019-01-29T12:11:00.436Z,4.482727
2019-01-29T12:12:09.980Z,4.835205
2019-01-29T12:13:19.498Z,5.288391
2019-01-29T12:14:30.044Z,5.751648
2019-01-29T12:15:39.569Z,6.043701
2019-01-29T12:16:49.093Z,6.053772
2019-01-29T12:17:58.614Z,5.509949
2019-01-29T12:19:08.156Z,5.227966
2019-01-29T12:20:17.675Z,4.956055
2019-01-29T12:21:27.203Z,4.452515
2019-01-29T12:22:36.735Z,4.170532
2019-01-29T12:23:46.270Z,4.009399
2019-01-29T12:24:55.806Z,3.908691
2019-01-29T12:26:12.873Z,3.807983
2019-01-29T12:27:14.817Z,3.828125
2019-01-29T12:28:24.330Z,3.687134
2019-01-29T12:29:33.906Z,3.505859
2019-01-29T12:30:43.437Z,3.374939
2019-01-29T12:31:52.965Z,3.26416
2019-01-29T12:33:02.492Z,3.002319
2019-01-29T12:34:12.059Z,3.072815
2019-01-29T12:35:21.574Z,3.143311
2019-01-29T12:36:31.098Z,3.284302
2019-01-29T12:37:40.629Z,3.556213
2019-01-29T12:38:50.157Z,3.807983
2019-01-29T12:39:59.696Z,3.7677
2019-01-29T12:41:09.223Z,3.586426
2019-01-29T12:42:18.734Z,3.505859
2019-01-29T12:43:28.262Z,3.505859
2019-01-29T12:44:37.823Z,3.526001
2019-01-29T12:45:48.233Z,3.505859
2019-01-29T12:46:56.874Z,3.294373
2019-01-29T12:48:06.413Z,3.254089
2019-01-29T12:49:15.968Z,3.294373
2019-01-29T12:50:25.483Z,3.284302
2019-01-29T12:51:34.993Z,3.26416
2019-01-29T12:52:44.638Z,3.26416
2019-01-29T12:53:54.178Z,3.294373
2019-01-29T12:55:03.709Z,3.254089
2019-01-29T12:56:21.233Z,3.233948
2019-01-29T12:57:22.736Z,3.193665
2019-01-29T12:58:32.264Z,3.233948
2019-01-29T12:59:41.819Z,3.26416
2019-01-29T13:00:52.336Z,3.26416
2019-01-29T13:02:01.883Z,3.314514
2019-01-29T13:03:11.413Z,3.223877
2019-01-29T13:04:20.978Z,3.314514
2019-01-29T13:05:32.528Z,3.344727
2019-01-29T13:06:40.019Z,3.374939
2019-01-29T13:07:49.548Z,3.324585
2019-01-29T13:08:59.073Z,3.445435
2019-01-29T13:10:08.608Z,3.546143
2019-01-29T13:11:18.139Z,3.435364
2019-01-29T13:12:27.670Z,3.475647
2019-01-29T13:13:37.186Z,3.445435
2019-01-29T13:14:46.744Z,3.596497
2019-01-29T13:15:56.262Z,3.797913
2019-01-29T13:17:05.792Z,4.01947
2019-01-29T13:18:15.318Z,4.230957
2019-01-29T13:19:24.858Z,4.402161
2019-01-29T13:20:34.389Z,4.563293
2019-01-29T13:21:43.910Z,4.734497
2019-01-29T13:22:53.445Z,4.815063
2019-01-29T13:24:02.973Z,4.89563
2019-01-29T13:25:12.536Z,4.996338